Nordic Philip — 5BZH2 — position and weather

sailwx.info

Track history (hours):
 
Tides and Currents Weather Stations Pressure Air Temp Water Temp Dewpoint Dewpoint Depression Visibility Wind Speed Wind Dir Waves Ship Positions

Nordic Philip

Last reported at 2018-Apr-22 20:30 UTC. Time now 2018-Apr-24 12:45 UTC.
Position N 60°29' E 019°02'.

Length 152 m; draft 7.1 m.

Type: Ship (hazmat cat A). MMSI: 212018000.

Date/timePositionNaut miles runAvg speedWind from/ knotsBaromVisibWave heightAir tempDewpointWater temp
2018-Apr-22 20:30N 60°29' E 019°02'917.9
2018-Apr-22 20:00N 60°20' E 019°01'917.7
2018-Apr-22 19:31N 60°12' E 019°05'917.8
2018-Apr-22 19:01N 60°05' E 019°16'917.8
2018-Apr-22 18:31N 59°58' E 019°28'917.7
2018-Apr-22 18:00N 59°51' E 019°39'917.6
2018-Apr-22 17:30N 59°44' E 019°51'917.6
2018-Apr-22 16:59N 59°38' E 020°03'19216.8
2018-Apr-22 05:32N 56°47' E 017°18'118.4
2018-Apr-22 05:30N 56°46' E 017°18'918.3
2018-Apr-22 05:00N 56°38' E 017°12'918.3
2018-Apr-22 04:30N 56°29' E 017°06'918.3
2018-Apr-22 04:00N 56°21' E 016°59'918.3
2018-Apr-22 03:30N 56°12' E 016°53'918.0
2018-Apr-22 03:00N 56°04' E 016°46'918.3
2018-Apr-22 02:30N 55°59' E 016°33'918.5
2018-Apr-22 02:00N 55°55' E 016°18'918.4
2018-Apr-22 01:30N 55°50' E 016°03'918.4
2018-Apr-22 01:00N 55°46' E 015°49'918.6
2018-Apr-22 00:30N 55°42' E 015°35'918.4
2018-Apr-22 00:00N 55°37' E 015°20'918.4
2018-Apr-21 23:30N 55°33' E 015°06'918.3
2018-Apr-21 23:00N 55°28' E 014°52'918.3
2018-Apr-21 22:30N 55°24' E 014°38'918.6
2018-Apr-21 22:01N 55°16' E 014°28'918.5
2018-Apr-21 21:30N 55°09' E 014°18'918.6
2018-Apr-21 21:01N 55°02' E 014°07'1718.8
2018-Apr-21 20:07N 54°56' E 013°40'3118.7
2018-Apr-21 18:26N 54°45' E 012°49'1418.7
2018-Apr-21 17:43N 54°38' E 012°29'518.7
2018-Apr-21 17:26N 54°35' E 012°22'1517.4
2018-Apr-21 16:35N 54°24' E 012°05'818.7
2018-Apr-21 16:10N 54°24' E 011°51'518.4
2018-Apr-21 15:54N 54°25' E 011°43'719.0
2018-Apr-21 15:30N 54°29' E 011°31'918.8
2018-Apr-21 15:00N 54°33' E 011°17'918.3
2018-Apr-21 14:30N 54°35' E 011°01'918.4
2018-Apr-21 14:00N 54°34' E 010°45'917.9
2018-Apr-21 13:30N 54°32' E 010°30'23 5.5
2018-Apr-21 09:12N 54°21' E 009°55'1 5.7
2018-Apr-21 09:00N 54°21' E 009°53'4 7.3
2018-Apr-21 08:30N 54°22' E 009°47'3 5.3
2018-Apr-21 08:00N 54°20' E 009°44'3 5.6
2018-Apr-21 07:30N 54°18' E 009°41'4 7.4
2018-Apr-21 07:00N 54°15' E 009°37'3 6.7
2018-Apr-21 06:30N 54°12' E 009°34'1 1.1
2018-Apr-21 06:00N 54°12' E 009°33'3 5.7
2018-Apr-21 05:30N 54°11' E 009°28'4 7.1
2018-Apr-21 05:00N 54°09' E 009°23'4 7.4
2018-Apr-21 04:30N 54°06' E 009°20'4 7.4
2018-Apr-21 04:00N 54°02' E 009°18'3 6.9
2018-Apr-21 03:30N 53°59' E 009°17'4 8.5
2018-Apr-21 03:00N 53°56' E 009°12'3 6.2
2018-Apr-21 02:30N 53°54' E 009°09'0 0.0
2018-Apr-21 02:00N 53°54' E 009°09'1 2.8
2018-Apr-21 01:30N 53°53' E 009°06'4 8.9
2018-Apr-21 01:00N 53°51' E 008°60'816.8
2018-Apr-21 00:30N 53°51' E 008°45'917.8
2018-Apr-21 00:00N 53°58' E 008°35'918.9
2018-Apr-20 23:30N 53°59' E 008°19'815.5
2018-Apr-20 23:00N 53°59' E 008°06'815.5
2018-Apr-20 22:30N 53°54' E 007°56'3 5.7
2018-Apr-20 22:00N 53°51' E 007°58'714.2
2018-Apr-20 21:30N 53°48' E 008°09'815.6
2018-Apr-20 21:00N 53°43' E 008°18'816.1
2018-Apr-20 20:30N 53°37' E 008°29'3 5.6
2018-Apr-20 20:00N 53°35' E 008°32'0 0.0
2018-Apr-20 19:30N 53°35' E 008°32'0 0.0
2018-Apr-20 19:00N 53°35' E 008°32'0 0.0
2018-Apr-20 18:30N 53°35' E 008°32'0 0.0
2018-Apr-20 18:00N 53°35' E 008°32'0 0.0
2018-Apr-20 17:30N 53°35' E 008°32'0 0.0
2018-Apr-20 17:00N 53°35' E 008°32'0 0.0
2018-Apr-20 16:30N 53°35' E 008°32'0 0.0
2018-Apr-20 16:00N 53°35' E 008°32'0 0.0
2018-Apr-20 15:30N 53°35' E 008°32'0 0.0
2018-Apr-20 15:00N 53°35' E 008°32'0 0.0
2018-Apr-20 14:30N 53°35' E 008°32'0 0.0
2018-Apr-20 14:00N 53°35' E 008°32'0 0.0
2018-Apr-20 13:30N 53°35' E 008°32'0 0.0
2018-Apr-20 13:00N 53°35' E 008°32'0 0.0
2018-Apr-20 12:30N 53°35' E 008°32'0 0.1
2018-Apr-20 12:00N 53°35' E 008°32'1 2.1
2018-Apr-20 11:29N 53°36' E 008°31'0 0.0
2018-Apr-20 11:00N 53°36' E 008°31'0 0.0
2018-Apr-20 10:28N 53°36' E 008°31'0 0.0
2018-Apr-20 09:58N 53°36' E 008°31'0 0.0
2018-Apr-20 09:28N 53°36' E 008°31'0 0.0
2018-Apr-20 09:00N 53°36' E 008°31'0 0.0
2018-Apr-20 08:29N 53°36' E 008°31'0 0.0
2018-Apr-20 07:59N 53°36' E 008°31'0 0.7
2018-Apr-20 07:31N 53°36' E 008°30'5 9.8
2018-Apr-20 07:01N 53°39' E 008°24'713.9
2018-Apr-20 06:30N 53°44' E 008°15'714.0
2018-Apr-20 06:00N 53°49' E 008°07'714.6
2018-Apr-20 05:31N 53°52' E 007°55'4 8.2
2018-Apr-20 05:00N 53°53' E 007°48'3 6.6
2018-Apr-20 04:30N 53°54' E 007°43'6 4.5
2018-Apr-20 03:09N 53°59' E 007°37'1 7.4
2018-Apr-20 03:00N 53°60' E 007°37'3 6.5
2018-Apr-20 02:30N 54°01' E 007°42'3 5.7
2018-Apr-20 01:59N 54°01' E 007°47'3 5.3
2018-Apr-20 01:30N 54°01' E 007°51'3 5.2
2018-Apr-20 01:00N 54°00' E 007°56'3 5.0
2018-Apr-20 00:22N 54°00' E 008°01'2 4.8
2018-Apr-19 23:56N 54°00' E 008°04'2 4.7
2018-Apr-19 23:28N 54°00' E 008°08'3 4.3
2018-Apr-19 22:52N 54°00' E 008°13'4 8.9
2018-Apr-19 22:26N 53°60' E 008°19'813.6
2018-Apr-19 21:52N 53°58' E 008°32'615.2
2018-Apr-19 21:30N 53°56' E 008°40'816.1
2018-Apr-19 21:00N 53°50' E 008°50'917.1
2018-Apr-19 20:30N 53°52' E 009°05'713.1
2018-Apr-19 20:00N 53°52' E 009°16'816.0
2018-Apr-19 19:30N 53°46' E 009°24'714.5
2018-Apr-19 19:00N 53°40' E 009°31'612.7
2018-Apr-19 18:30N 53°35' E 009°37'611.5
2018-Apr-19 18:00N 53°34' E 009°47'5 9.7
2018-Apr-19 17:30N 53°32' E 009°55'0 0.1
2018-Apr-19 16:59N 53°32' E 009°55'0 0.0
2018-Apr-19 16:29N 53°32' E 009°55'0 0.0
2018-Apr-19 15:59N 53°32' E 009°55'0 0.0
2018-Apr-19 15:29N 53°32' E 009°55'0 0.0
2018-Apr-19 14:59N 53°32' E 009°55'0 0.0
2018-Apr-19 14:29N 53°32' E 009°55'0 0.0
2018-Apr-19 13:59N 53°32' E 009°55'0 0.0
2018-Apr-19 13:29N 53°32' E 009°55'0 0.0
2018-Apr-19 12:59N 53°32' E 009°55'0 0.0
2018-Apr-19 12:29N 53°32' E 009°55'0 0.0
2018-Apr-19 11:59N 53°32' E 009°55'0 0.0
2018-Apr-19 11:29N 53°32' E 009°55'0 0.0
2018-Apr-19 10:59N 53°32' E 009°55'0 0.0
2018-Apr-19 10:30N 53°32' E 009°55'0 0.6
2018-Apr-19 10:01N 53°32' E 009°54'0 0.8
2018-Apr-19 09:29N 53°32' E 009°55'0 0.0
2018-Apr-19 08:59N 53°32' E 009°55'0 0.0
2018-Apr-19 08:29N 53°32' E 009°55'0 0.0
2018-Apr-19 07:58N 53°32' E 009°55'0 0.0
2018-Apr-19 07:29N 53°32' E 009°55'0 0.0
2018-Apr-19 06:58N 53°32' E 009°55'0 0.0
2018-Apr-19 06:28N 53°32' E 009°55'0 0.0
2018-Apr-19 05:58N 53°32' E 009°55'0 0.0
2018-Apr-19 05:28N 53°32' E 009°55'0 0.2
2018-Apr-19 04:58N 53°32' E 009°55'1 2.3
2018-Apr-19 04:31N 53°32' E 009°56'2 4.2
2018-Apr-19 03:59N 53°30' E 009°56'0 0.0
2018-Apr-19 03:29N 53°30' E 009°56'0 0.0
2018-Apr-19 02:59N 53°30' E 009°56'0 0.0
2018-Apr-19 02:29N 53°30' E 009°56'0 0.0
2018-Apr-19 01:59N 53°30' E 009°56'0 0.0
2018-Apr-19 01:29N 53°30' E 009°56'0 0.0
2018-Apr-19 00:59N 53°30' E 009°56'0 0.0
2018-Apr-19 00:26N 53°30' E 009°56'0 0.0
2018-Apr-18 23:59N 53°30' E 009°56'0 0.0
2018-Apr-18 23:29N 53°30' E 009°56'0 0.0
2018-Apr-18 22:59N 53°30' E 009°56'0 0.0
2018-Apr-18 22:29N 53°30' E 009°56'0 0.0
2018-Apr-18 21:59N 53°30' E 009°56'0 0.0
2018-Apr-18 21:29N 53°30' E 009°56'0 0.0
2018-Apr-18 20:59N 53°30' E 009°56'0 0.0
2018-Apr-18 20:26N 53°30' E 009°56'0 0.0
2018-Apr-18 19:59N 53°30' E 009°56'0 0.0
2018-Apr-18 19:29N 53°30' E 009°56'0 0.0
2018-Apr-18 18:59N 53°30' E 009°56'0 0.0
2018-Apr-18 18:29N 53°30' E 009°56'0 0.0
2018-Apr-18 17:59N 53°30' E 009°56'0 0.0
2018-Apr-18 17:29N 53°30' E 009°56'0 0.0
2018-Apr-18 16:59N 53°30' E 009°56'0 0.0
2018-Apr-18 16:29N 53°30' E 009°56'0 0.0
2018-Apr-18 15:59N 53°30' E 009°56'0 0.0
2018-Apr-18 15:29N 53°30' E 009°56'0 0.0
2018-Apr-18 14:59N 53°30' E 009°56'0 0.0
2018-Apr-18 14:29N 53°30' E 009°56'0 0.0
2018-Apr-18 13:59N 53°30' E 009°56'0 0.0
2018-Apr-18 13:29N 53°30' E 009°56'0 0.0
2018-Apr-18 12:59N 53°30' E 009°56'0 0.0
2018-Apr-18 12:30N 53°30' E 009°56'2 4.0
2018-Apr-18 12:00N 53°32' E 009°56'3 5.8
2018-Apr-18 11:30N 53°33' E 009°52'4 7.9
2018-Apr-18 11:00N 53°34' E 009°45'5 9.4
2018-Apr-18 10:30N 53°35' E 009°37'611.1
2018-Apr-18 10:00N 53°39' E 009°31'611.1
2018-Apr-18 09:30N 53°44' E 009°27'611.1
2018-Apr-18 09:00N 53°49' E 009°22'612.5
2018-Apr-18 08:31N 53°53' E 009°14'3 6.7
2018-Apr-18 08:00N 53°54' E 009°09'0 0.0
2018-Apr-18 07:31N 53°54' E 009°09'1 1.1
2018-Apr-18 07:01N 53°54' E 009°09'3 6.4
2018-Apr-18 06:30N 53°56' E 009°13'4 8.0
2018-Apr-18 06:00N 53°60' E 009°17'4 7.3
2018-Apr-18 05:30N 54°03' E 009°18'4 7.8
2018-Apr-18 05:00N 54°07' E 009°20'4 7.5
2018-Apr-18 04:30N 54°10' E 009°24'4 8.2
2018-Apr-18 04:00N 54°11' E 009°31'2 3.5
2018-Apr-18 03:30N 54°12' E 009°33'2 5.0
2018-Apr-18 03:00N 54°14' E 009°36'4 7.4
2018-Apr-18 02:30N 54°17' E 009°39'3 7.0
2018-Apr-18 02:00N 54°20' E 009°43'4 8.4
2018-Apr-18 01:30N 54°22' E 009°49'5 7.7
2018-Apr-18 00:48N 54°21' E 009°58'11 4.2
2018-Apr-17 22:08N 54°27' E 010°14'216.2
2018-Apr-17 22:00N 54°29' E 010°16'711.4
2018-Apr-17 21:20N 54°32' E 010°27'514.1
2018-Apr-17 21:01N 54°34' E 010°35'917.3
2018-Apr-17 20:30N 54°35' E 010°50'917.5
2018-Apr-17 20:00N 54°36' E 011°05'817.0
2018-Apr-17 19:30N 54°34' E 011°19'917.5
2018-Apr-17 19:00N 54°30' E 011°32'917.0
2018-Apr-17 18:30N 54°26' E 011°46'917.2
2018-Apr-17 18:00N 54°26' E 012°01'714.7
2018-Apr-17 17:30N 54°29' E 012°12'917.0
2018-Apr-17 17:00N 54°37' E 012°18'4917.3
2018-Apr-17 14:11N 54°57' E 013°35'1917.3
2018-Apr-17 13:05N 55°06' E 014°05'117.7
2018-Apr-17 13:00N 55°07' E 014°07'1217.6
2018-Apr-17 12:18N 55°16' E 014°21'517.5
2018-Apr-17 12:00N 55°21' E 014°26'917.3
2018-Apr-17 11:30N 55°27' E 014°35'917.5
2018-Apr-17 11:00N 55°32' E 014°48'917.5
2018-Apr-17 10:30N 55°36' E 015°02'917.7
2018-Apr-17 10:00N 55°41' E 015°15'917.8
2018-Apr-17 09:30N 55°45' E 015°29'917.9
2018-Apr-17 09:00N 55°50' E 015°43'917.9
2018-Apr-17 08:30N 55°54' E 015°56'917.9
2018-Apr-17 08:00N 55°58' E 016°11'917.8
2018-Apr-17 07:30N 56°02' E 016°25'917.7
2018-Apr-17 07:00N 56°07' E 016°38'816.8
2018-Apr-17 06:30N 56°14' E 016°47'918.0
2018-Apr-17 06:00N 56°22' E 016°53'917.9
2018-Apr-17 05:30N 56°31' E 016°59'15618.0
2018-Apr-16 20:50N 58°50' E 019°10'617.6
2018-Apr-16 20:30N 58°55' E 019°16'918.0
2018-Apr-16 20:00N 59°03' E 019°25'918.0
2018-Apr-16 19:30N 59°10' E 019°33'918.1
2018-Apr-16 19:00N 59°18' E 019°42'918.0
2018-Apr-16 18:30N 59°26' E 019°51'917.9
2018-Apr-16 18:00N 59°34' E 019°58'917.6
2018-Apr-16 17:30N 59°42' E 019°49'918.3
2018-Apr-16 17:00N 59°49' E 019°37'918.1
2018-Apr-16 16:30N 59°56' E 019°26'918.1
2018-Apr-16 16:00N 60°03' E 019°15'918.1
2018-Apr-16 15:30N 60°09' E 019°02'917.5
2018-Apr-16 15:01N 60°18' E 018°60'1018.1
2018-Apr-16 14:26N 60°28' E 018°59'1318.0
2018-Apr-16 13:44N 60°41' E 019°03'418.1
2018-Apr-16 13:31N 60°45' E 019°05'  
Track history (hours):
 
Tides and Currents Weather Stations Pressure Air Temp Water Temp Dewpoint Dewpoint Depression Visibility Wind Speed Wind Dir Waves Ship Positions

Nordic Philip

Last reported at 2018-Apr-22 20:30 UTC. Time now 2018-Apr-24 12:45 UTC.
Position N 60°29' E 019°02'.

Length 152 m; draft 7.1 m.

Type: Ship (hazmat cat A). MMSI: 212018000.

Date/timePositionNaut miles runAvg speedWind from/ knotsBaromVisibWave heightAir tempDewpointWater temp
2018-Apr-22 20:30N 60°29' E 019°02'917.9
2018-Apr-22 20:00N 60°20' E 019°01'917.7
2018-Apr-22 19:31N 60°12' E 019°05'917.8
2018-Apr-22 19:01N 60°05' E 019°16'917.8
2018-Apr-22 18:31N 59°58' E 019°28'917.7
2018-Apr-22 18:00N 59°51' E 019°39'917.6
2018-Apr-22 17:30N 59°44' E 019°51'917.6
2018-Apr-22 16:59N 59°38' E 020°03'19216.8
2018-Apr-22 05:32N 56°47' E 017°18'118.4
2018-Apr-22 05:30N 56°46' E 017°18'918.3
2018-Apr-22 05:00N 56°38' E 017°12'918.3
2018-Apr-22 04:30N 56°29' E 017°06'918.3
2018-Apr-22 04:00N 56°21' E 016°59'918.3
2018-Apr-22 03:30N 56°12' E 016°53'918.0
2018-Apr-22 03:00N 56°04' E 016°46'918.3
2018-Apr-22 02:30N 55°59' E 016°33'918.5
2018-Apr-22 02:00N 55°55' E 016°18'918.4
2018-Apr-22 01:30N 55°50' E 016°03'918.4
2018-Apr-22 01:00N 55°46' E 015°49'918.6
2018-Apr-22 00:30N 55°42' E 015°35'918.4
2018-Apr-22 00:00N 55°37' E 015°20'918.4
2018-Apr-21 23:30N 55°33' E 015°06'918.3
2018-Apr-21 23:00N 55°28' E 014°52'918.3
2018-Apr-21 22:30N 55°24' E 014°38'918.6
2018-Apr-21 22:01N 55°16' E 014°28'918.5
2018-Apr-21 21:30N 55°09' E 014°18'918.6
2018-Apr-21 21:01N 55°02' E 014°07'1718.8
2018-Apr-21 20:07N 54°56' E 013°40'3118.7
2018-Apr-21 18:26N 54°45' E 012°49'1418.7
2018-Apr-21 17:43N 54°38' E 012°29'518.7
2018-Apr-21 17:26N 54°35' E 012°22'1517.4
2018-Apr-21 16:35N 54°24' E 012°05'818.7
2018-Apr-21 16:10N 54°24' E 011°51'518.4
2018-Apr-21 15:54N 54°25' E 011°43'719.0
2018-Apr-21 15:30N 54°29' E 011°31'918.8
2018-Apr-21 15:00N 54°33' E 011°17'918.3
2018-Apr-21 14:30N 54°35' E 011°01'918.4
2018-Apr-21 14:00N 54°34' E 010°45'917.9
2018-Apr-21 13:30N 54°32' E 010°30'23 5.5
2018-Apr-21 09:12N 54°21' E 009°55'1 5.7
2018-Apr-21 09:00N 54°21' E 009°53'4 7.3
2018-Apr-21 08:30N 54°22' E 009°47'3 5.3
2018-Apr-21 08:00N 54°20' E 009°44'3 5.6
2018-Apr-21 07:30N 54°18' E 009°41'4 7.4
2018-Apr-21 07:00N 54°15' E 009°37'3 6.7
2018-Apr-21 06:30N 54°12' E 009°34'1 1.1
2018-Apr-21 06:00N 54°12' E 009°33'3 5.7
2018-Apr-21 05:30N 54°11' E 009°28'4 7.1
2018-Apr-21 05:00N 54°09' E 009°23'4 7.4
2018-Apr-21 04:30N 54°06' E 009°20'4 7.4
2018-Apr-21 04:00N 54°02' E 009°18'3 6.9
2018-Apr-21 03:30N 53°59' E 009°17'4 8.5
2018-Apr-21 03:00N 53°56' E 009°12'3 6.2
2018-Apr-21 02:30N 53°54' E 009°09'0 0.0
2018-Apr-21 02:00N 53°54' E 009°09'1 2.8
2018-Apr-21 01:30N 53°53' E 009°06'4 8.9
2018-Apr-21 01:00N 53°51' E 008°60'816.8
2018-Apr-21 00:30N 53°51' E 008°45'917.8
2018-Apr-21 00:00N 53°58' E 008°35'918.9
2018-Apr-20 23:30N 53°59' E 008°19'815.5
2018-Apr-20 23:00N 53°59' E 008°06'815.5
2018-Apr-20 22:30N 53°54' E 007°56'3 5.7
2018-Apr-20 22:00N 53°51' E 007°58'714.2
2018-Apr-20 21:30N 53°48' E 008°09'815.6
2018-Apr-20 21:00N 53°43' E 008°18'816.1
2018-Apr-20 20:30N 53°37' E 008°29'3 5.6
2018-Apr-20 20:00N 53°35' E 008°32'0 0.0
2018-Apr-20 19:30N 53°35' E 008°32'0 0.0
2018-Apr-20 19:00N 53°35' E 008°32'0 0.0
2018-Apr-20 18:30N 53°35' E 008°32'0 0.0
2018-Apr-20 18:00N 53°35' E 008°32'0 0.0
2018-Apr-20 17:30N 53°35' E 008°32'0 0.0
2018-Apr-20 17:00N 53°35' E 008°32'0 0.0
2018-Apr-20 16:30N 53°35' E 008°32'0 0.0
2018-Apr-20 16:00N 53°35' E 008°32'0 0.0
2018-Apr-20 15:30N 53°35' E 008°32'0 0.0
2018-Apr-20 15:00N 53°35' E 008°32'0 0.0
2018-Apr-20 14:30N 53°35' E 008°32'0 0.0
2018-Apr-20 14:00N 53°35' E 008°32'0 0.0
2018-Apr-20 13:30N 53°35' E 008°32'0 0.0
2018-Apr-20 13:00N 53°35' E 008°32'0 0.0
2018-Apr-20 12:30N 53°35' E 008°32'0 0.1
2018-Apr-20 12:00N 53°35' E 008°32'1 2.1
2018-Apr-20 11:29N 53°36' E 008°31'0 0.0
2018-Apr-20 11:00N 53°36' E 008°31'0 0.0
2018-Apr-20 10:28N 53°36' E 008°31'0 0.0
2018-Apr-20 09:58N 53°36' E 008°31'0 0.0
2018-Apr-20 09:28N 53°36' E 008°31'0 0.0
2018-Apr-20 09:00N 53°36' E 008°31'0 0.0
2018-Apr-20 08:29N 53°36' E 008°31'0 0.0
2018-Apr-20 07:59N 53°36' E 008°31'0 0.7
2018-Apr-20 07:31N 53°36' E 008°30'5 9.8
2018-Apr-20 07:01N 53°39' E 008°24'713.9
2018-Apr-20 06:30N 53°44' E 008°15'714.0
2018-Apr-20 06:00N 53°49' E 008°07'714.6
2018-Apr-20 05:31N 53°52' E 007°55'4 8.2
2018-Apr-20 05:00N 53°53' E 007°48'3 6.6
2018-Apr-20 04:30N 53°54' E 007°43'6 4.5
2018-Apr-20 03:09N 53°59' E 007°37'1 7.4
2018-Apr-20 03:00N 53°60' E 007°37'3 6.5
2018-Apr-20 02:30N 54°01' E 007°42'3 5.7
2018-Apr-20 01:59N 54°01' E 007°47'3 5.3
2018-Apr-20 01:30N 54°01' E 007°51'3 5.2
2018-Apr-20 01:00N 54°00' E 007°56'3 5.0
2018-Apr-20 00:22N 54°00' E 008°01'2 4.8
2018-Apr-19 23:56N 54°00' E 008°04'2 4.7
2018-Apr-19 23:28N 54°00' E 008°08'3 4.3
2018-Apr-19 22:52N 54°00' E 008°13'4 8.9
2018-Apr-19 22:26N 53°60' E 008°19'813.6
2018-Apr-19 21:52N 53°58' E 008°32'615.2
2018-Apr-19 21:30N 53°56' E 008°40'816.1
2018-Apr-19 21:00N 53°50' E 008°50'917.1
2018-Apr-19 20:30N 53°52' E 009°05'713.1
2018-Apr-19 20:00N 53°52' E 009°16'816.0
2018-Apr-19 19:30N 53°46' E 009°24'714.5
2018-Apr-19 19:00N 53°40' E 009°31'612.7
2018-Apr-19 18:30N 53°35' E 009°37'611.5
2018-Apr-19 18:00N 53°34' E 009°47'5 9.7
2018-Apr-19 17:30N 53°32' E 009°55'0 0.1
2018-Apr-19 16:59N 53°32' E 009°55'0 0.0
2018-Apr-19 16:29N 53°32' E 009°55'0 0.0
2018-Apr-19 15:59N 53°32' E 009°55'0 0.0
2018-Apr-19 15:29N 53°32' E 009°55'0 0.0
2018-Apr-19 14:59N 53°32' E 009°55'0 0.0
2018-Apr-19 14:29N 53°32' E 009°55'0 0.0
2018-Apr-19 13:59N 53°32' E 009°55'0 0.0
2018-Apr-19 13:29N 53°32' E 009°55'0 0.0
2018-Apr-19 12:59N 53°32' E 009°55'0 0.0
2018-Apr-19 12:29N 53°32' E 009°55'0 0.0
2018-Apr-19 11:59N 53°32' E 009°55'0 0.0
2018-Apr-19 11:29N 53°32' E 009°55'0 0.0
2018-Apr-19 10:59N 53°32' E 009°55'0 0.0
2018-Apr-19 10:30N 53°32' E 009°55'0 0.6
2018-Apr-19 10:01N 53°32' E 009°54'0 0.8
2018-Apr-19 09:29N 53°32' E 009°55'0 0.0
2018-Apr-19 08:59N 53°32' E 009°55'0 0.0
2018-Apr-19 08:29N 53°32' E 009°55'0 0.0
2018-Apr-19 07:58N 53°32' E 009°55'0 0.0
2018-Apr-19 07:29N 53°32' E 009°55'0 0.0
2018-Apr-19 06:58N 53°32' E 009°55'0 0.0
2018-Apr-19 06:28N 53°32' E 009°55'0 0.0
2018-Apr-19 05:58N 53°32' E 009°55'0 0.0
2018-Apr-19 05:28N 53°32' E 009°55'0 0.2
2018-Apr-19 04:58N 53°32' E 009°55'1 2.3
2018-Apr-19 04:31N 53°32' E 009°56'2 4.2
2018-Apr-19 03:59N 53°30' E 009°56'0 0.0
2018-Apr-19 03:29N 53°30' E 009°56'0 0.0
2018-Apr-19 02:59N 53°30' E 009°56'0 0.0
2018-Apr-19 02:29N 53°30' E 009°56'0 0.0
2018-Apr-19 01:59N 53°30' E 009°56'0 0.0
2018-Apr-19 01:29N 53°30' E 009°56'0 0.0
2018-Apr-19 00:59N 53°30' E 009°56'0 0.0
2018-Apr-19 00:26N 53°30' E 009°56'0 0.0
2018-Apr-18 23:59N 53°30' E 009°56'0 0.0
2018-Apr-18 23:29N 53°30' E 009°56'0 0.0
2018-Apr-18 22:59N 53°30' E 009°56'0 0.0
2018-Apr-18 22:29N 53°30' E 009°56'0 0.0
2018-Apr-18 21:59N 53°30' E 009°56'0 0.0
2018-Apr-18 21:29N 53°30' E 009°56'0 0.0
2018-Apr-18 20:59N 53°30' E 009°56'0 0.0
2018-Apr-18 20:26N 53°30' E 009°56'0 0.0
2018-Apr-18 19:59N 53°30' E 009°56'0 0.0
2018-Apr-18 19:29N 53°30' E 009°56'0 0.0
2018-Apr-18 18:59N 53°30' E 009°56'0 0.0
2018-Apr-18 18:29N 53°30' E 009°56'0 0.0
2018-Apr-18 17:59N 53°30' E 009°56'0 0.0
2018-Apr-18 17:29N 53°30' E 009°56'0 0.0
2018-Apr-18 16:59N 53°30' E 009°56'0 0.0
2018-Apr-18 16:29N 53°30' E 009°56'0 0.0
2018-Apr-18 15:59N 53°30' E 009°56'0 0.0
2018-Apr-18 15:29N 53°30' E 009°56'0 0.0
2018-Apr-18 14:59N 53°30' E 009°56'0 0.0
2018-Apr-18 14:29N 53°30' E 009°56'0 0.0
2018-Apr-18 13:59N 53°30' E 009°56'0 0.0
2018-Apr-18 13:29N 53°30' E 009°56'0 0.0
2018-Apr-18 12:59N 53°30' E 009°56'0 0.0
2018-Apr-18 12:30N 53°30' E 009°56'2 4.0
2018-Apr-18 12:00N 53°32' E 009°56'3 5.8
2018-Apr-18 11:30N 53°33' E 009°52'4 7.9
2018-Apr-18 11:00N 53°34' E 009°45'5 9.4
2018-Apr-18 10:30N 53°35' E 009°37'611.1
2018-Apr-18 10:00N 53°39' E 009°31'611.1
2018-Apr-18 09:30N 53°44' E 009°27'611.1
2018-Apr-18 09:00N 53°49' E 009°22'612.5
2018-Apr-18 08:31N 53°53' E 009°14'3 6.7
2018-Apr-18 08:00N 53°54' E 009°09'0 0.0
2018-Apr-18 07:31N 53°54' E 009°09'1 1.1
2018-Apr-18 07:01N 53°54' E 009°09'3 6.4
2018-Apr-18 06:30N 53°56' E 009°13'4 8.0
2018-Apr-18 06:00N 53°60' E 009°17'4 7.3
2018-Apr-18 05:30N 54°03' E 009°18'4 7.8
2018-Apr-18 05:00N 54°07' E 009°20'4 7.5
2018-Apr-18 04:30N 54°10' E 009°24'4 8.2
2018-Apr-18 04:00N 54°11' E 009°31'2 3.5
2018-Apr-18 03:30N 54°12' E 009°33'2 5.0
2018-Apr-18 03:00N 54°14' E 009°36'4 7.4
2018-Apr-18 02:30N 54°17' E 009°39'3 7.0
2018-Apr-18 02:00N 54°20' E 009°43'4 8.4
2018-Apr-18 01:30N 54°22' E 009°49'5 7.7
2018-Apr-18 00:48N 54°21' E 009°58'11 4.2
2018-Apr-17 22:08N 54°27' E 010°14'216.2
2018-Apr-17 22:00N 54°29' E 010°16'711.4
2018-Apr-17 21:20N 54°32' E 010°27'514.1
2018-Apr-17 21:01N 54°34' E 010°35'917.3
2018-Apr-17 20:30N 54°35' E 010°50'917.5
2018-Apr-17 20:00N 54°36' E 011°05'817.0
2018-Apr-17 19:30N 54°34' E 011°19'917.5
2018-Apr-17 19:00N 54°30' E 011°32'917.0
2018-Apr-17 18:30N 54°26' E 011°46'917.2
2018-Apr-17 18:00N 54°26' E 012°01'714.7
2018-Apr-17 17:30N 54°29' E 012°12'917.0
2018-Apr-17 17:00N 54°37' E 012°18'4917.3
2018-Apr-17 14:11N 54°57' E 013°35'1917.3
2018-Apr-17 13:05N 55°06' E 014°05'117.7
2018-Apr-17 13:00N 55°07' E 014°07'1217.6
2018-Apr-17 12:18N 55°16' E 014°21'517.5
2018-Apr-17 12:00N 55°21' E 014°26'917.3
2018-Apr-17 11:30N 55°27' E 014°35'917.5
2018-Apr-17 11:00N 55°32' E 014°48'917.5
2018-Apr-17 10:30N 55°36' E 015°02'917.7
2018-Apr-17 10:00N 55°41' E 015°15'917.8
2018-Apr-17 09:30N 55°45' E 015°29'917.9
2018-Apr-17 09:00N 55°50' E 015°43'917.9
2018-Apr-17 08:30N 55°54' E 015°56'917.9
2018-Apr-17 08:00N 55°58' E 016°11'917.8
2018-Apr-17 07:30N 56°02' E 016°25'917.7
2018-Apr-17 07:00N 56°07' E 016°38'816.8
2018-Apr-17 06:30N 56°14' E 016°47'918.0
2018-Apr-17 06:00N 56°22' E 016°53'917.9
2018-Apr-17 05:30N 56°31' E 016°59'15618.0
2018-Apr-16 20:50N 58°50' E 019°10'617.6
2018-Apr-16 20:30N 58°55' E 019°16'918.0
2018-Apr-16 20:00N 59°03' E 019°25'918.0
2018-Apr-16 19:30N 59°10' E 019°33'918.1
2018-Apr-16 19:00N 59°18' E 019°42'918.0
2018-Apr-16 18:30N 59°26' E 019°51'917.9
2018-Apr-16 18:00N 59°34' E 019°58'917.6
2018-Apr-16 17:30N 59°42' E 019°49'918.3
2018-Apr-16 17:00N 59°49' E 019°37'918.1
2018-Apr-16 16:30N 59°56' E 019°26'918.1
2018-Apr-16 16:00N 60°03' E 019°15'918.1
2018-Apr-16 15:30N 60°09' E 019°02'917.5
2018-Apr-16 15:01N 60°18' E 018°60'1018.1
2018-Apr-16 14:26N 60°28' E 018°59'1318.0
2018-Apr-16 13:44N 60°41' E 019°03'418.1
2018-Apr-16 13:31N 60°45' E 019°05'  

Dump ship's entire track history